ADDS TAF Board (Experimental) INFO Settings

IDs: Format: Expanded Condensed

KMEM - Memphis Intl, TN, US

Issued at 2050 UTC 27 Mar 2015
Updated at: 2053 UTC 27 Mar 2015
Time1954Z 27/21Z 27/22Z 27/23Z 28/00Z 28/01Z 28/02Z 28/03Z 28/04Z 28/05Z 28/06Z 28/07Z 28/08Z 28/09Z
Type OBS PRVL
  [TEMP]  
PRVL PRVL PRVL PRVL PRVL PRVL PRVL PRVL PRVL PRVL PRVL PRVL
VIS 10 >6 >6 >6 >6 >6 >6 >6 >6 >6 >6 >6 >6 >6
CIG 31 45
  [45]  
45 45 45 -- -- -- -- -- 100 100 100 100
Cover OVC BKN
  [BKN]  
BKN BKN BKN SKC SKC SKC SKC SKC BKN BKN BKN BKN
FltCat VFR VFR
  [VFR]  
VFR VFR VFR VFR VFR VFR VFR VFR VFR VFR VFR VFR
WX -RA VCSH
  [-RA]  
VCSH VCSH VCSH -- -- -- -- -- -- -- -- --
WDir 10 360
[360]
360 360 360 10 10 10 10 10 40 40 40 40
WSpd 10 11
  [11]  
11 11 11 6 6 6 6 6 4 4 4 4
WGst -- --
  [--]  
-- -- -- -- -- -- -- -- -- -- -- --
R09/27
XWnd 10 11 11 11 11 6 6 6 6 6 3 3 3 3
XGst -- 0 -- -- -- -- -- -- -- -- -- -- -- --
HWnd 1 -0 -0 -0 -0 1 1 1 1 1 2 2 2 2
HGst -- 0 -- -- -- -- -- -- -- -- -- -- -- --
R18/36
XWnd 2 0 0 0 0 1 1 1 1 1 3 3 3 3
XGst -- 0 -- -- -- -- -- -- -- -- -- -- -- --
HWnd -10 -11 -11 -11 -11 -6 -6 -6 -6 -6 -3 -3 -3 -3
HGst -- 0 -- -- -- -- -- -- -- -- -- -- -- --

NOTE: TEMPO conditions in [brackets]. Keep in mind TEMPO conditions might be better (lower impact) than prevailing conditions.

Raw TAF
KMEM 272050Z 2721/2818 36011KT P6SM VCSH SCT030 BKN045
  TEMPO 2721/2722 -RA
  FM280100 01006KT P6SM SKC
  FM280600 04004KT P6SM BKN100
  FM281500 09007KT P6SM SCT035 OVC050


Raw METAR
KMEM 271954Z 01010KT 10SM -RA SCT018 BKN031 OVC070 08/04 A3010 RMK AO2 RAE28B44 SLP194 P0000 T00780039
KMEM 271927Z 01010KT 10SM -RA FEW019 BKN031 OVC047 09/04 A3010 RMK AO2 P0000
KMEM 271854Z 34012G18KT 10SM -RA BKN024 OVC033 08/03 A3011 RMK AO2 RAE26B51 SLP196 P0000 T00830028
KMEM 271754Z 34010KT 10SM -RA BKN024 BKN032 OVC050 08/03 A3011 RMK AO2 RAB16 SLP196 P0000 60000 T00780028 10094 20033 51004

METAR Board
Radar Display
Forecast Discussion

TAF Board Legend

Potential Impact
Threat None Slight Moderate High
Visibility (sm) ≥5.1 5.1>X≥3 3>X≥1 <1
Ceiling (100 ft) ≥30.1 30.1>X≥10 10>X≥5 <5
Wind Speed (kt) <10 10≤X<20 20≤X<30 ≥30
Wind Gust (kt) <15 15≤X<25 25≤X<35 ≥35
Weather No Wx Reported VCTS,-TS,-FZRA,SN TS,FZRA +TS,+FZRA,+SN